Terminal Aerodrome Forecast
Issued by NWS

Home | Current Version | Previous Version | Text Only | Print | Product List | Glossary On
Versions: 1 2 3 4 5 6 7 8 9 10 11 12
000
FTUS44 KOUN 110048 RRA
TAFCSM
TAF
KCSM 110048Z 1101/1124 17022G29KT P6SM SCT250
     FM110700 18020G27KT P6SM OVC030
     FM111500 19022G28KT P6SM BKN040
     FM111900 30017G22KT P6SM BKN250=

USA.gov is the U.S. government's official web portal to all federal, state and local government web resources and services.